Time;durP1;ratioP1;P1;durP2;ratioP2;P2;SDS_P1;SDS_P2;PMS_P1;PMS_P2;Temp;Humidity;BMP_temperature;BMP_pressure;BME280_temperature;BME280_humidity;BME280_pressure;Samples;Min_cycle;Max_cycle;Signal;HPM_P1;HPM_P2
2022/03/26 00:00:23;;;;;;;14.67;9.73;;;;;;;7.83;54.16;98016.25;6286287;22;20184;-94
2022/03/26 00:02:52;;;;;;;15.20;9.53;;;;;;;7.75;53.70;98004.41;6249866;22;20217;-90
2022/03/26 00:05:22;;;;;;;16.20;8.87;;;;;;;7.79;54.14;98014.63;6247509;22;20623;-95
2022/03/26 00:07:49;;;;;;;17.93;9.73;;;;;;;7.78;54.09;98017.22;6247937;22;20200;-93
2022/03/26 00:10:16;;;;;;;17.00;10.03;;;;;;;7.61;54.02;97989.19;6274404;22;20175;-89
2022/03/26 00:12:44;;;;;;;14.30;9.70;;;;;;;7.76;53.78;98004.38;6294610;22;20188;-91
2022/03/26 00:15:17;;;;;;;14.57;9.73;;;;;;;7.68;55.26;97990.78;6285159;22;20192;-94
2022/03/26 00:17:44;;;;;;;17.33;9.70;;;;;;;7.80;54.56;98006.00;6281398;22;20214;-95
2022/03/26 00:20:13;;;;;;;18.63;10.57;;;;;;;7.86;54.90;98011.06;6278166;22;20165;-92
2022/03/26 00:22:41;;;;;;;19.07;11.53;;;;;;;7.78;54.16;98002.63;6276193;22;20164;-91
2022/03/26 00:25:10;;;;;;;16.47;10.40;;;;;;;7.69;55.13;98013.09;6257271;22;20594;-95
2022/03/26 00:27:37;;;;;;;18.53;10.37;;;;;;;7.68;53.90;98032.03;6223937;22;20172;-93
2022/03/26 00:30:06;;;;;;;15.47;10.27;;;;;;;7.63;54.79;98023.53;6286794;22;20247;-89
2022/03/26 00:32:34;;;;;;;16.73;9.03;;;;;;;7.45;55.94;98013.56;6294703;22;20219;-95
2022/03/26 00:35:01;;;;;;;16.10;9.87;;;;;;;7.25;55.70;98000.19;6260010;22;20193;-87
2022/03/26 00:37:29;;;;;;;15.50;9.27;;;;;;;7.30;54.90;98016.38;6286957;22;20164;-94
2022/03/26 00:39:57;;;;;;;12.33;8.93;;;;;;;7.32;55.19;98014.63;6277341;22;20203;-92
2022/03/26 00:42:25;;;;;;;19.10;9.57;;;;;;;7.53;55.32;98032.31;6278095;22;20624;-96
2022/03/26 00:44:52;;;;;;;14.33;8.97;;;;;;;7.47;55.55;98000.63;6261495;22;20181;-85
2022/03/26 00:47:18;;;;;;;14.00;9.27;;;;;;;7.37;55.10;98005.09;6281836;22;20226;-85
2022/03/26 00:49:45;;;;;;;19.30;9.97;;;;;;;6.76;55.32;98000.09;6286551;22;20175;-93
2022/03/26 00:52:14;;;;;;;20.03;10.47;;;;;;;6.76;56.61;98018.13;6299857;22;20185;-85
2022/03/26 00:54:41;;;;;;;20.00;10.67;;;;;;;6.36;57.65;98040.16;6257991;22;20169;-84
2022/03/26 00:57:09;;;;;;;18.70;11.60;;;;;;;5.68;59.51;98046.94;6251624;22;20172;-89
2022/03/26 00:59:36;;;;;;;16.13;10.03;;;;;;;5.41;60.49;98033.50;6297716;22;20159;-87
2022/03/26 01:02:05;;;;;;;14.40;10.33;;;;;;;5.27;61.25;98048.19;6297020;22;20160;-84
2022/03/26 01:04:40;;;;;;;14.40;10.03;;;;;;;5.13;62.17;98032.06;6279366;22;20171;-85
2022/03/26 01:07:08;;;;;;;18.77;11.10;;;;;;;4.94;62.20;98024.53;6276950;22;20176;-85
2022/03/26 01:09:36;;;;;;;14.27;9.77;;;;;;;4.97;62.60;98045.03;6276494;22;20630;-85
2022/03/26 01:12:03;;;;;;;17.57;10.57;;;;;;;4.97;62.52;98037.31;6284524;22;20175;-85
2022/03/26 01:14:30;;;;;;;14.03;9.83;;;;;;;4.84;62.88;98034.88;6284312;22;20167;-92
2022/03/26 01:16:57;;;;;;;16.37;9.63;;;;;;;5.15;62.27;98040.59;6298081;22;20639;-94
2022/03/26 01:19:25;;;;;;;13.63;9.30;;;;;;;5.07;63.01;98042.38;6283829;22;20185;-91
2022/03/26 01:21:52;;;;;;;17.60;10.10;;;;;;;5.45;61.51;98048.03;6282817;22;20159;-94
2022/03/26 01:24:19;;;;;;;18.57;10.40;;;;;;;5.62;61.03;98048.72;6279081;22;20200;-93
2022/03/26 01:26:47;;;;;;;18.77;10.13;;;;;;;5.81;60.33;98027.09;6264954;22;20258;-90
2022/03/26 01:29:14;;;;;;;14.43;9.20;;;;;;;5.91;60.29;98049.28;6260123;22;20177;-96
2022/03/26 01:31:42;;;;;;;16.57;10.50;;;;;;;5.89;60.09;98029.63;6284992;22;20188;-90
2022/03/26 01:34:09;;;;;;;15.63;10.10;;;;;;;5.83;60.98;98048.50;6286144;22;20324;-90
2022/03/26 01:36:36;;;;;;;16.63;10.53;;;;;;;5.78;60.90;98039.97;6284396;22;20166;-96
2022/03/26 01:39:04;;;;;;;13.97;9.27;;;;;;;5.76;60.95;98018.59;6288721;22;20164;-96
2022/03/26 01:41:31;;;;;;;14.10;8.87;;;;;;;5.92;60.98;98048.41;6283864;22;20204;-96
2022/03/26 01:43:58;;;;;;;18.67;9.90;;;;;;;6.07;60.49;98053.38;6286921;22;20160;-96
2022/03/26 01:46:25;;;;;;;15.37;10.30;;;;;;;5.86;61.09;98069.03;6271932;22;20198;-95
2022/03/26 01:48:53;;;;;;;16.73;10.47;;;;;;;5.02;62.54;98026.16;6238614;22;20197;-89
2022/03/26 01:51:20;;;;;;;17.27;10.33;;;;;;;5.13;63.08;98050.88;6261862;22;20252;-96
2022/03/26 01:53:53;;;;;;;20.37;11.57;;;;;;;4.94;63.95;98044.19;6291070;22;20254;-95
2022/03/26 01:56:21;;;;;;;21.20;11.43;;;;;;;5.13;62.69;98073.16;6258189;22;20183;-96
2022/03/26 01:58:48;;;;;;;16.03;10.33;;;;;;;4.99;62.67;98064.69;6253815;22;20165;-93
2022/03/26 02:01:23;;;;;;;15.07;9.77;;;;;;;4.75;62.86;98061.44;6267193;22;20271;-86
2022/03/26 02:03:51;;;;;;;18.07;10.33;;;;;;;4.87;63.00;98066.47;6299101;22;20186;-85
2022/03/26 02:06:22;;;;;;;17.50;10.23;;;;;;;4.91;62.21;98057.91;6274622;22;20167;-85
2022/03/26 02:08:52;;;;;;;19.77;10.50;;;;;;;4.65;62.69;98048.69;6300884;22;20158;-87
2022/03/26 02:11:23;;;;;;;20.27;10.27;;;;;;;4.76;62.59;98063.13;6293635;22;20160;-86
2022/03/26 02:13:54;;;;;;;19.23;10.27;;;;;;;4.79;62.44;98083.66;6270079;22;20232;-86
2022/03/26 02:16:22;;;;;;;22.33;11.33;;;;;;;4.32;62.95;98052.28;6263885;22;20185;-88
2022/03/26 02:18:51;;;;;;;19.00;10.50;;;;;;;4.54;62.69;98066.69;6271422;22;20187;-87
2022/03/26 02:21:21;;;;;;;17.63;10.23;;;;;;;4.90;62.68;98086.16;6264005;22;20158;-85
2022/03/26 02:23:51;;;;;;;21.00;11.40;;;;;;;4.93;61.84;98089.53;6295826;22;20230;-84
2022/03/26 02:26:22;;;;;;;17.87;9.67;;;;;;;4.69;62.15;98086.28;6264637;22;20607;-85
2022/03/26 02:28:49;;;;;;;15.60;9.67;;;;;;;4.36;63.20;98071.94;6264032;22;20222;-88
2022/03/26 02:31:17;;;;;;;16.70;9.00;;;;;;;4.79;62.75;98098.19;6270572;22;20154;-86
2022/03/26 02:33:46;;;;;;;16.00;9.90;;;;;;;4.93;61.33;98092.09;6257815;22;20208;-85
2022/03/26 02:36:13;;;;;;;19.40;10.43;;;;;;;4.74;61.05;98077.69;6296946;22;20172;-85
2022/03/26 02:38:41;;;;;;;15.50;9.47;;;;;;;4.58;62.00;98088.03;6246075;22;20192;-85
2022/03/26 02:41:09;;;;;;;15.50;9.63;;;;;;;4.33;62.41;98104.44;6273897;22;20635;-87
2022/03/26 02:43:36;;;;;;;15.70;9.23;;;;;;;4.31;62.34;98113.84;6256799;22;20175;-84
2022/03/26 02:46:04;;;;;;;22.30;10.57;;;;;;;4.22;62.47;98089.09;6276683;22;20199;-83
2022/03/26 02:48:35;;;;;;;20.97;10.37;;;;;;;4.57;62.04;98118.00;6260560;22;20180;-85
2022/03/26 02:51:04;;;;;;;16.33;9.40;;;;;;;4.64;61.03;98119.66;6277521;22;20239;-84
2022/03/26 02:53:33;;;;;;;12.77;9.20;;;;;;;4.50;61.76;98113.72;6244798;22;20201;-87
2022/03/26 02:56:01;;;;;;;12.90;8.87;;;;;;;3.84;63.14;98084.09;6250050;22;20685;-85
2022/03/26 02:58:29;;;;;;;12.37;8.73;;;;;;;4.29;62.66;98120.66;6250439;22;20169;-87
2022/03/26 03:01:00;;;;;;;15.97;9.53;;;;;;;4.09;62.01;98052.41;6281838;22;20226;-85
2022/03/26 03:03:30;;;;;;;14.73;9.40;;;;;;;4.54;61.72;98112.84;6241349;22;20170;-90
2022/03/26 03:05:58;;;;;;;12.13;8.20;;;;;;;4.41;62.17;98129.16;6271687;22;20221;-84
2022/03/26 03:08:25;;;;;;;13.37;9.20;;;;;;;4.67;61.04;98124.78;6276430;22;20170;-84
2022/03/26 03:10:53;;;;;;;17.57;8.73;;;;;;;4.77;60.76;98111.03;6302200;22;20178;-91
2022/03/26 03:13:22;;;;;;;13.53;8.77;;;;;;;4.97;59.86;98115.19;6275866;22;20196;-89
2022/03/26 03:15:51;;;;;;;16.40;9.27;;;;;;;4.79;59.67;98100.75;6277413;22;20177;-86
2022/03/26 03:18:19;;;;;;;15.80;9.00;;;;;;;4.90;59.47;98122.91;6303972;22;20166;-85
2022/03/26 03:20:46;;;;;;;17.97;10.60;;;;;;;4.97;59.79;98134.84;6303469;22;20158;-87
2022/03/26 03:23:14;;;;;;;15.17;8.80;;;;;;;4.61;60.08;98129.94;6303540;22;20169;-85
2022/03/26 03:25:41;;;;;;;20.97;11.10;;;;;;;4.31;60.99;98134.34;6302452;22;20154;-84
2022/03/26 03:28:10;;;;;;;85.43;32.90;;;;;;;3.69;62.64;98093.53;6284109;22;20720;-83
2022/03/26 03:30:37;;;;;;;22.93;12.40;;;;;;;3.56;62.20;98084.16;6292811;22;20161;-85
2022/03/26 03:33:07;;;;;;;13.60;8.87;;;;;;;3.62;62.35;98099.50;6290344;22;20189;-85
2022/03/26 03:35:34;;;;;;;16.27;9.57;;;;;;;3.58;63.38;98123.41;6245276;22;20610;-86
2022/03/26 03:38:01;;;;;;;19.13;11.93;;;;;;;2.96;63.69;98047.50;6272009;22;20253;-89
2022/03/26 03:40:28;;;;;;;20.47;10.60;;;;;;;3.62;64.97;98143.91;6244452;22;20200;-86
2022/03/26 03:42:55;;;;;;;22.80;12.70;;;;;;;3.87;63.47;98126.78;6221325;22;20196;-88
2022/03/26 03:45:22;;;;;;;17.07;9.33;;;;;;;3.84;64.61;98124.22;6272083;22;20234;-85
2022/03/26 03:47:51;;;;;;;18.67;10.97;;;;;;;3.69;64.78;98137.06;6219687;22;20292;-86
2022/03/26 03:50:22;;;;;;;18.00;9.20;;;;;;;3.78;65.46;98137.03;6271998;22;20165;-85
2022/03/26 03:52:50;;;;;;;20.37;10.17;;;;;;;4.16;63.95;98154.91;6245888;22;20536;-87
2022/03/26 03:55:18;;;;;;;21.43;10.13;;;;;;;4.37;63.16;98159.97;6270853;22;20470;-85
2022/03/26 03:57:46;;;;;;;20.40;11.63;;;;;;;4.48;62.84;98163.31;6270764;22;20165;-85
2022/03/26 04:00:15;;;;;;;21.80;12.87;;;;;;;4.64;61.74;98163.25;6243745;22;20177;-86
2022/03/26 04:02:43;;;;;;;23.73;14.73;;;;;;;4.73;61.19;98160.66;6271706;22;20167;-89
2022/03/26 04:05:13;;;;;;;22.40;14.93;;;;;;;4.64;61.01;98136.75;6271067;22;20224;-85
2022/03/26 04:07:46;;;;;;;20.17;12.53;;;;;;;4.67;60.40;98158.13;6271283;22;20166;-87
2022/03/26 04:10:14;;;;;;;20.57;10.50;;;;;;;4.05;61.61;98157.47;6271190;22;20167;-84
2022/03/26 04:12:44;;;;;;;14.13;8.90;;;;;;;2.84;62.96;98152.38;6275283;22;20188;-87
2022/03/26 04:15:14;;;;;;;18.20;9.57;;;;;;;2.29;65.65;98122.34;6245544;22;20529;-85
2022/03/26 04:17:43;;;;;;;19.37;9.57;;;;;;;2.31;65.65;98143.66;6271723;22;20171;-91
2022/03/26 04:20:11;;;;;;;15.43;9.20;;;;;;;2.31;66.10;98139.41;6272677;22;20172;-86
2022/03/26 04:22:39;;;;;;;15.73;10.03;;;;;;;2.79;64.28;98136.16;6272187;22;20169;-88
2022/03/26 04:25:08;;;;;;;17.77;8.83;;;;;;;3.01;64.45;98122.53;6220038;22;20519;-88
2022/03/26 04:27:36;;;;;;;14.73;8.67;;;;;;;3.48;63.06;98157.56;6271964;22;20169;-86
2022/03/26 04:30:03;;;;;;;15.50;10.13;;;;;;;3.38;62.85;98155.84;6272759;22;20160;-84
2022/03/26 04:32:30;;;;;;;14.63;9.80;;;;;;;3.07;64.05;98153.25;6245251;22;20164;-86
2022/03/26 04:34:58;;;;;;;18.00;10.03;;;;;;;3.16;64.30;98143.03;6249145;22;20202;-85
2022/03/26 04:37:25;;;;;;;15.53;9.23;;;;;;;3.06;64.67;98125.97;6276783;22;20167;-84
2022/03/26 04:39:52;;;;;;;15.70;10.27;;;;;;;3.22;64.42;98122.56;6271920;22;20176;-92
2022/03/26 04:42:19;;;;;;;15.73;9.43;;;;;;;3.38;63.26;98145.63;6271055;22;20625;-86
2022/03/26 04:44:46;;;;;;;17.13;9.90;;;;;;;3.73;63.38;98160.09;6269850;22;20173;-90
2022/03/26 04:47:14;;;;;;;17.17;10.53;;;;;;;3.71;62.93;98166.09;6270817;22;20161;-91
2022/03/26 04:49:41;;;;;;;16.47;9.27;;;;;;;3.85;62.66;98165.19;6272696;22;20204;-93
2022/03/26 04:52:10;;;;;;;17.53;11.03;;;;;;;4.06;61.21;98138.66;6273065;22;20681;-96
2022/03/26 04:54:41;;;;;;;20.07;11.00;;;;;;;4.53;60.00;98161.59;6273786;22;20208;-96
2022/03/26 04:57:10;;;;;;;17.87;10.73;;;;;;;4.83;58.65;98161.44;6272606;22;20225;-86
2022/03/26 04:59:37;;;;;;;24.37;13.23;;;;;;;5.01;57.68;98187.00;6243511;22;20245;-86
2022/03/26 05:02:05;;;;;;;21.33;12.13;;;;;;;5.02;57.26;98152.78;6243068;22;20783;-84
2022/03/26 05:04:32;;;;;;;17.50;11.43;;;;;;;5.04;57.23;98201.53;6243289;22;20248;-85
2022/03/26 05:06:59;;;;;;;20.07;11.70;;;;;;;4.89;56.97;98159.72;6242686;22;20169;-84
2022/03/26 05:09:26;;;;;;;18.53;10.60;;;;;;;4.97;55.98;98205.03;6270678;22;20614;-85
2022/03/26 05:11:53;;;;;;;24.00;12.30;;;;;;;4.66;57.43;98205.16;6270366;22;20700;-87
2022/03/26 05:14:21;;;;;;;16.90;10.20;;;;;;;4.76;56.95;98200.84;6269698;22;20205;-85
2022/03/26 05:16:49;;;;;;;17.30;10.17;;;;;;;4.88;57.23;98211.88;6270679;22;20165;-87
2022/03/26 05:19:17;;;;;;;17.83;10.97;;;;;;;5.21;56.71;98210.88;6245119;22;20198;-85
2022/03/26 05:21:46;;;;;;;18.23;10.00;;;;;;;5.24;57.32;98222.81;6247109;22;20174;-90
2022/03/26 05:24:13;;;;;;;17.17;11.57;;;;;;;5.18;56.97;98190.34;6248143;22;20197;-87
2022/03/26 05:26:41;;;;;;;19.27;11.10;;;;;;;4.91;57.99;98177.66;6277810;22;20182;-85
2022/03/26 05:29:10;;;;;;;20.43;11.70;;;;;;;5.03;58.95;98217.81;6275465;22;20242;-83
2022/03/26 05:31:47;;;;;;;25.77;15.20;;;;;;;4.48;60.18;98153.94;6253775;22;20179;-85
2022/03/26 05:34:15;;;;;;;32.33;18.73;;;;;;;4.78;60.12;98174.28;6252119;22;20547;-85
2022/03/26 05:36:42;;;;;;;29.23;17.87;;;;;;;5.02;59.75;98208.41;6280143;22;20165;-84
2022/03/26 05:39:09;;;;;;;24.53;16.50;;;;;;;4.78;59.97;98158.91;6229662;22;20175;-87
2022/03/26 05:41:40;;;;;;;23.77;15.63;;;;;;;5.27;59.43;98184.28;6279248;22;20194;-85
2022/03/26 05:44:09;;;;;;;24.63;14.57;;;;;;;5.60;58.68;98207.19;6252107;22;20215;-84
2022/03/26 05:46:36;;;;;;;23.93;15.40;;;;;;;5.74;56.98;98177.06;6280807;22;20166;-84
2022/03/26 05:49:06;;;;;;;26.63;14.37;;;;;;;5.85;56.38;98190.72;6258163;22;20172;-85
2022/03/26 05:51:35;;;;;;;25.97;15.90;;;;;;;5.77;57.15;98197.59;6283071;22;20163;-84
2022/03/26 05:54:03;;;;;;;24.60;13.87;;;;;;;5.70;56.99;98191.69;6278855;22;20293;-84
2022/03/26 05:56:36;;;;;;;21.33;14.17;;;;;;;5.94;57.48;98220.63;6257478;22;20174;-85
2022/03/26 05:59:06;;;;;;;24.20;13.40;;;;;;;6.14;56.72;98214.44;6291955;22;20186;-94
2022/03/26 06:01:35;;;;;;;33.07;16.87;;;;;;;6.45;55.26;98218.41;6295596;22;20159;-86
2022/03/26 06:04:04;;;;;;;24.67;12.73;;;;;;;6.63;55.68;98219.06;6236468;22;20312;-86
2022/03/26 06:06:34;;;;;;;20.00;11.57;;;;;;;6.85;54.10;98229.09;6289731;22;20164;-85
2022/03/26 06:09:02;;;;;;;22.90;13.00;;;;;;;7.02;54.49;98236.63;6265796;22;20671;-86
2022/03/26 06:11:30;;;;;;;21.03;12.73;;;;;;;7.25;53.98;98232.84;6289441;22;20160;-83
2022/03/26 06:13:58;;;;;;;18.70;11.23;;;;;;;7.12;54.20;98217.59;6261328;22;20196;-85
2022/03/26 06:16:28;;;;;;;18.43;11.27;;;;;;;7.42;53.60;98212.00;6287055;22;20570;-83
2022/03/26 06:18:59;;;;;;;21.17;12.50;;;;;;;7.57;52.43;98226.41;6255814;22;20617;-84
2022/03/26 06:21:30;;;;;;;20.73;11.63;;;;;;;7.80;52.83;98239.78;6251618;22;20557;-86
2022/03/26 06:23:58;;;;;;;20.07;12.10;;;;;;;7.71;53.23;98212.44;6256147;22;20564;-85
2022/03/26 06:26:27;;;;;;;18.30;11.10;;;;;;;7.96;52.67;98218.03;6282393;22;20191;-85
2022/03/26 06:28:57;;;;;;;19.07;11.50;;;;;;;8.05;52.69;98236.81;6255267;22;20220;-85
2022/03/26 06:31:25;;;;;;;26.97;14.43;;;;;;;8.05;53.00;98244.56;6254894;22;20172;-86
2022/03/26 06:33:54;;;;;;;21.50;11.57;;;;;;;8.20;51.47;98244.28;6281672;22;20188;-85
2022/03/26 06:36:26;;;;;;;18.77;10.67;;;;;;;7.88;52.56;98207.84;6249793;22;20727;-85
2022/03/26 06:38:57;;;;;;;13.73;9.03;;;;;;;7.33;52.67;98156.34;6272309;22;20590;-85
2022/03/26 06:41:27;;;;;;;15.47;10.20;;;;;;;7.40;54.41;98221.50;6220711;22;20192;-84
2022/03/26 06:43:56;;;;;;;15.80;9.53;;;;;;;7.11;55.80;98249.41;6243022;22;20503;-84
2022/03/26 06:46:25;;;;;;;19.33;9.70;;;;;;;7.17;55.18;98246.75;6219485;22;20624;-84
2022/03/26 06:48:54;;;;;;;17.93;10.93;;;;;;;6.81;54.37;98165.66;6244380;22;20169;-84
2022/03/26 06:51:26;;;;;;;13.57;9.00;;;;;;;7.54;53.83;98250.53;6284176;22;20177;-85
2022/03/26 06:53:55;;;;;;;11.20;8.30;;;;;;;7.73;51.97;98221.00;6289135;22;20266;-89
2022/03/26 06:56:23;;;;;;;15.80;8.77;;;;;;;7.95;51.92;98198.28;6256905;22;20164;-88
2022/03/26 06:58:52;;;;;;;12.23;8.60;;;;;;;8.52;51.46;98229.97;6257665;22;20193;-85
2022/03/26 07:01:20;;;;;;;14.13;9.43;;;;;;;8.82;50.52;98229.41;6236250;22;20523;-88
2022/03/26 07:03:59;;;;;;;18.43;9.50;;;;;;;8.82;50.59;98260.41;6289523;22;20169;-90
2022/03/26 07:06:54;;;;;;;14.00;9.70;;;;;;;8.99;50.43;98258.31;6287974;22;20184;-85
2022/03/26 07:09:25;;;;;;;13.83;9.40;;;;;;;9.13;50.35;98256.31;6259585;22;20195;-84
2022/03/26 07:12:04;;;;;;;37.60;16.00;;;;;;;9.13;49.74;98248.53;6281961;22;20228;-86
2022/03/26 07:15:36;;;;;;;13.80;9.20;;;;;;;9.25;48.78;98260.38;6274616;22;20334;-84
2022/03/26 07:18:15;;;;;;;12.90;8.80;;;;;;;9.33;49.43;98259.34;6277778;22;20174;-95
2022/03/26 07:20:45;;;;;;;22.13;13.20;;;;;;;9.30;49.00;98223.19;6249608;22;20203;-89
2022/03/26 07:23:17;;;;;;;14.37;9.13;;;;;;;9.37;48.95;98235.13;6252885;22;20164;-86
2022/03/26 07:25:47;;;;;;;11.63;8.73;;;;;;;9.13;48.44;98221.88;6278130;22;20168;-87
2022/03/26 07:28:15;;;;;;;16.27;9.80;;;;;;;9.08;48.42;98167.72;6248473;22;20171;-91
2022/03/26 07:30:45;;;;;;;13.33;8.63;;;;;;;9.86;47.10;98240.03;6250308;22;20442;-92
2022/03/26 07:33:15;;;;;;;15.07;9.20;;;;;;;10.03;46.95;98237.88;6274633;22;20232;-89
2022/03/26 07:35:46;;;;;;;17.03;9.33;;;;;;;10.01;47.29;98223.28;6225669;22;20200;-86
2022/03/26 07:38:20;;;;;;;15.97;9.10;;;;;;;9.99;47.52;98245.75;6248551;22;20180;-84
2022/03/26 07:40:48;;;;;;;17.67;10.20;;;;;;;10.05;47.94;98246.47;6249918;22;20265;-90
2022/03/26 07:43:17;;;;;;;13.90;8.70;;;;;;;10.15;46.96;98235.03;6247321;22;20203;-93
2022/03/26 07:45:50;;;;;;;17.77;9.87;;;;;;;10.10;48.21;98247.22;6234258;22;20538;-91
2022/03/26 07:51:18;;;;;;;16.13;8.77;;;;;;;10.08;47.64;98217.03;6240199;22;20242;-89
2022/03/26 07:53:58;;;;;;;13.70;8.83;;;;;;;10.13;46.97;98228.19;6209545;22;20188;-90
2022/03/26 07:56:27;;;;;;;12.77;8.33;;;;;;;10.22;46.91;98243.50;6282488;22;20194;-85
2022/03/26 07:58:57;;;;;;;14.30;9.17;;;;;;;10.37;47.13;98232.72;6278507;22;20172;-91
2022/03/26 08:01:25;;;;;;;16.03;9.50;;;;;;;10.60;45.93;98232.97;6279987;22;20173;-87
2022/03/26 08:04:13;;;;;;;13.43;8.20;;;;;;;10.81;45.16;98237.59;6281298;22;20148;-91
2022/03/26 08:06:41;;;;;;;16.23;8.87;;;;;;;10.87;44.62;98229.63;6282020;22;20195;-86
2022/03/26 08:09:23;;;;;;;13.13;8.30;;;;;;;10.99;43.97;98224.09;6295133;22;20171;-84
2022/03/26 08:11:54;;;;;;;11.57;8.13;;;;;;;10.93;43.83;98232.06;6271349;22;20169;-85
2022/03/26 08:14:22;;;;;;;14.30;8.23;;;;;;;10.44;44.15;98177.31;6267788;22;20200;-85
2022/03/26 08:16:53;;;;;;;16.73;8.87;;;;;;;10.69;44.25;98232.75;6260690;22;20171;-84
2022/03/26 08:19:23;;;;;;;15.03;8.73;;;;;;;10.47;44.56;98174.63;6275217;22;20707;-85
2022/03/26 08:21:57;;;;;;;13.23;8.43;;;;;;;10.88;44.05;98220.97;6225085;22;20516;-84
2022/03/26 08:24:38;;;;;;;14.20;8.40;;;;;;;10.93;42.95;98203.56;6248115;22;20161;-88
2022/03/26 08:27:14;;;;;;;15.10;8.27;;;;;;;11.02;42.88;98198.13;6245590;22;20204;-86
2022/03/26 08:29:50;;;;;;;12.03;8.43;;;;;;;11.40;42.97;98221.16;6245423;22;20596;-85
2022/03/26 08:32:22;;;;;;;14.30;8.50;;;;;;;11.48;41.96;98219.16;6243182;22;20218;-85
2022/03/26 08:34:52;;;;;;;16.83;7.87;;;;;;;11.55;41.52;98214.66;6270658;22;20283;-84
2022/03/26 08:37:21;;;;;;;13.33;8.83;;;;;;;11.65;41.54;98195.31;6269926;22;20161;-86
2022/03/26 08:39:52;;;;;;;12.73;8.03;;;;;;;11.97;40.13;98197.72;6270520;22;20257;-84
2022/03/26 08:42:20;;;;;;;13.53;8.70;;;;;;;12.07;40.49;98162.81;6270510;22;20170;-85
2022/03/26 08:44:55;;;;;;;13.77;9.10;;;;;;;12.41;39.34;98180.66;6222729;22;20204;-86
2022/03/26 08:47:29;;;;;;;10.70;7.00;;;;;;;12.63;36.79;98201.56;6251709;22;20201;-86
2022/03/26 08:49:58;;;;;;;11.27;7.67;;;;;;;12.70;36.45;98188.28;6281320;22;20173;-84
2022/03/26 08:52:29;;;;;;;10.57;7.50;;;;;;;12.77;35.02;98150.78;6250080;22;20522;-88
2022/03/26 08:54:57;;;;;;;8.37;6.47;;;;;;;12.92;32.90;98164.97;6275501;22;20200;-88
2022/03/26 08:57:26;;;;;;;8.80;5.80;;;;;;;12.98;32.69;98162.97;6248957;22;20196;-88
2022/03/26 08:59:56;;;;;;;14.80;6.93;;;;;;;13.17;34.25;98172.72;6222727;22;20156;-84
2022/03/26 09:02:26;;;;;;;9.87;5.67;;;;;;;13.04;31.69;98165.38;6277371;22;20260;-88
2022/03/26 09:04:56;;;;;;;8.03;5.80;;;;;;;12.89;32.63;98162.47;6282708;22;20230;-92
2022/03/26 09:07:24;;;;;;;9.40;7.00;;;;;;;12.71;33.42;98174.41;6284266;22;20189;-92
2022/03/26 09:09:53;;;;;;;8.07;6.10;;;;;;;12.67;34.84;98131.22;6283434;22;20174;-88
2022/03/26 09:12:22;;;;;;;9.50;6.60;;;;;;;12.82;34.23;98174.84;6254666;22;20662;-88
2022/03/26 09:14:50;;;;;;;9.60;6.70;;;;;;;12.96;34.68;98151.78;6247804;22;20217;-85
2022/03/26 09:17:18;;;;;;;7.17;5.60;;;;;;;13.12;33.14;98149.50;6272607;22;20609;-93
2022/03/26 09:19:45;;;;;;;8.63;6.33;;;;;;;13.17;32.49;98115.50;6273514;22;20176;-85
2022/03/26 09:22:12;;;;;;;7.83;6.97;;;;;;;13.49;32.50;98134.16;6244308;22;20204;-86
2022/03/26 09:24:42;;;;;;;9.03;6.07;;;;;;;13.66;31.90;98160.31;6247723;22;20241;-87
2022/03/26 09:27:10;;;;;;;8.67;6.40;;;;;;;13.56;32.10;98130.38;6273367;22;20194;-85
2022/03/26 09:29:39;;;;;;;11.13;6.83;;;;;;;13.71;31.39;98142.78;6244795;22;20177;-86
2022/03/26 09:32:10;;;;;;;9.37;5.90;;;;;;;13.87;31.15;98151.66;6220934;22;20164;-85
2022/03/26 09:34:39;;;;;;;9.00;6.83;;;;;;;13.73;30.47;98150.50;6272268;22;20191;-85
2022/03/26 09:37:06;;;;;;;10.90;6.53;;;;;;;13.66;30.85;98142.09;6270639;22;20558;-85
2022/03/26 09:39:34;;;;;;;9.67;6.10;;;;;;;13.62;30.41;98143.13;6250258;22;20220;-88
2022/03/26 09:42:04;;;;;;;9.20;6.67;;;;;;;13.43;30.59;98123.97;6272315;22;20230;-87
2022/03/26 09:44:36;;;;;;;8.87;6.63;;;;;;;13.73;30.56;98137.50;6274185;22;20259;-90
2022/03/26 09:47:06;;;;;;;9.30;5.90;;;;;;;13.67;29.39;98124.72;6243963;22;20182;-90
2022/03/26 09:49:37;;;;;;;10.77;6.30;;;;;;;13.65;29.72;98098.78;6272666;22;20161;-88
2022/03/26 09:52:06;;;;;;;7.67;5.43;;;;;;;14.15;29.76;98133.13;6244237;22;20165;-91
2022/03/26 09:54:34;;;;;;;12.20;5.67;;;;;;;14.21;28.76;98126.78;6272813;22;20646;-84
2022/03/26 09:57:03;;;;;;;9.30;6.77;;;;;;;14.22;29.47;98126.72;6273659;22;20168;-87
2022/03/26 09:59:31;;;;;;;8.67;6.77;;;;;;;14.26;29.58;98117.03;6246406;22;20197;-85
2022/03/26 10:02:02;;;;;;;9.00;6.27;;;;;;;14.23;29.69;98112.81;6271518;22;20214;-86
2022/03/26 10:04:38;;;;;;;7.73;5.40;;;;;;;14.49;28.29;98122.09;6271797;22;20161;-88
2022/03/26 10:07:07;;;;;;;11.27;6.10;;;;;;;14.21;29.10;98096.38;6247368;22;20201;-87
2022/03/26 10:09:41;;;;;;;7.43;5.03;;;;;;;14.19;28.20;98085.19;6244935;22;20164;-86
2022/03/26 10:12:11;;;;;;;8.33;6.30;;;;;;;14.24;29.10;98069.38;6245612;22;20195;-85
2022/03/26 10:15:20;;;;;;;7.97;5.40;;;;;;;14.58;27.95;98099.09;6271174;22;20193;-84
2022/03/26 10:18:56;;;;;;;10.27;6.40;;;;;;;14.72;28.57;98090.66;6271614;22;20169;-84
2022/03/26 10:22:19;;;;;;;8.00;5.97;;;;;;;14.61;28.56;98080.69;6272195;22;20164;-84
2022/03/26 10:25:33;;;;;;;8.43;5.70;;;;;;;14.54;28.42;98073.22;6271850;22;20248;-84
2022/03/26 10:28:00;;;;;;;7.40;6.10;;;;;;;14.46;29.14;98063.16;6165042;22;20191;-83
2022/03/26 10:33:29;;;;;;;9.13;6.07;;;;;;;14.89;28.36;98074.22;6271571;22;20521;-86
2022/03/26 10:36:01;;;;;;;12.07;6.83;;;;;;;15.15;29.05;98079.06;6272191;22;20368;-84
2022/03/26 10:38:37;;;;;;;11.33;6.60;;;;;;;14.99;28.73;98028.53;6201673;22;20166;-84
2022/03/26 10:41:09;;;;;;;10.30;6.53;;;;;;;15.47;27.53;98070.59;6292693;22;20266;-85
2022/03/26 10:43:41;;;;;;;8.00;6.83;;;;;;;15.36;27.92;98044.97;6294629;22;20234;-85
2022/03/26 10:46:08;;;;;;;12.87;8.57;;;;;;;15.52;27.92;98055.53;6294619;22;20190;-85
2022/03/26 10:48:38;;;;;;;10.07;7.67;;;;;;;15.59;27.58;98066.50;6292805;22;20145;-86
2022/03/26 10:51:15;;;;;;;9.57;6.83;;;;;;;15.52;27.91;98065.16;6264229;22;20181;-85
2022/03/26 10:53:54;;;;;;;8.50;6.50;;;;;;;15.38;27.64;98035.28;6278863;22;20202;-90
2022/03/26 10:56:24;;;;;;;13.23;7.27;;;;;;;15.34;27.93;98041.59;6264772;22;20204;-84
2022/03/26 10:58:52;;;;;;;10.97;6.77;;;;;;;15.25;27.53;98021.13;6288592;22;20827;-84
2022/03/26 11:01:22;;;;;;;9.87;6.93;;;;;;;15.49;27.78;98053.06;6262792;22;20160;-96
2022/03/26 11:03:50;;;;;;;11.33;7.87;;;;;;;15.29;27.54;98053.19;6240137;22;20185;-84
2022/03/26 11:06:24;;;;;;;10.23;6.87;;;;;;;15.33;27.90;98057.31;6252796;22;20256;-84
2022/03/26 11:08:59;;;;;;;9.03;6.93;;;;;;;15.21;27.42;98014.38;6234047;22;20180;-85
2022/03/26 11:11:30;;;;;;;11.00;7.57;;;;;;;15.49;27.66;98050.47;6267555;22;20188;-86
2022/03/26 11:14:04;;;;;;;12.40;7.53;;;;;;;15.53;27.20;98025.91;6283576;22;20170;-85
2022/03/26 11:16:40;;;;;;;12.07;8.50;;;;;;;15.67;27.80;98039.09;6280970;22;20239;-84
2022/03/26 11:19:13;;;;;;;11.57;7.70;;;;;;;15.78;27.53;98039.44;6251861;22;20180;-84
2022/03/26 11:22:30;;;;;;;7.90;6.13;;;;;;;15.78;26.99;98030.72;6253843;22;20172;-84
2022/03/26 11:25:20;;;;;;;10.87;7.27;;;;;;;15.90;27.84;98030.97;6157034;23;20225;-85
2022/03/26 11:27:48;;;;;;;12.40;6.87;;;;;;;15.88;27.62;98018.88;6160419;23;20178;-84
2022/03/26 11:30:47;;;;;;;10.67;6.87;;;;;;;15.98;27.23;98015.72;6207700;22;20177;-86
2022/03/26 11:33:20;;;;;;;9.80;6.93;;;;;;;15.76;27.09;98016.91;6253677;22;20166;-85
2022/03/26 11:36:26;;;;;;;11.30;6.50;;;;;;;15.78;26.99;98010.69;6231134;22;20200;-87
2022/03/26 11:39:15;;;;;;;10.03;7.90;;;;;;;15.44;26.71;97998.47;6282049;22;20230;-85
2022/03/26 11:41:44;;;;;;;10.40;7.30;;;;;;;15.19;26.34;98011.00;6250957;22;20205;-85
2022/03/26 11:44:22;;;;;;;11.23;7.33;;;;;;;15.32;26.65;97999.06;6221044;22;20174;-87
2022/03/26 11:53:14;;;;;;;17.80;9.93;;;;;;;14.94;27.35;97983.59;6278621;22;20240;-86
2022/03/26 11:55:57;;;;;;;9.50;6.63;;;;;;;15.02;26.29;97978.84;6228235;22;20200;-88
2022/03/26 11:58:34;;;;;;;10.73;6.90;;;;;;;15.08;26.67;97973.31;6287545;22;20196;-90